Archival Weather

Sydney Intl

Sydney, Australia (YSSY)

Report from: Wednesday, September 20, 2023 12:30 AM AEST
Current time: Monday, June 17, 2024 9:05 PM AEST

Current weather – Weather history – Daily summaries
Weather forecast

Temperature23.0°C (73.4°F)
Dew point5.0°C (41.0°F)
Winds 10 kts (5.1 m/s, 11.5 mph) North (350°)
Visibility6.2 mi. (10 km)
Clouds Sky clear
Altimeter29.83 in.Hg (1010 mB)
Relative humidity31 %
Density altitude1,169 ft. (356 m)
Remarks Fully automated report
No clouds detected
Flight conditions Visual Meteorological Conditions
Raw dataYSSY 191430Z AUTO 35010KT 9999 // NCD 23/05 Q1010 RF00.0/000.0
An error has occurred. This application may no longer respond until reloaded. Reload 🗙